sensor_id;sensor_type;location;lat;lon;timestamp;P1;durP1;ratioP1;P2;durP2;ratioP2
55833;SDS011;41761;43.004;-0.066;2022-08-25T00:01:26;2.28;;;2.08;;
55833;SDS011;41761;43.004;-0.066;2022-08-25T00:03:52;1.83;;;1.70;;
55833;SDS011;41761;43.004;-0.066;2022-08-25T00:06:19;3.75;;;2.47;;
55833;SDS011;41761;43.004;-0.066;2022-08-25T00:08:45;2.53;;;2.33;;
55833;SDS011;41761;43.004;-0.066;2022-08-25T00:11:14;3.58;;;2.72;;
55833;SDS011;41761;43.004;-0.066;2022-08-25T00:13:43;3.25;;;2.38;;
55833;SDS011;41761;43.004;-0.066;2022-08-25T00:16:10;2.40;;;2.20;;
55833;SDS011;41761;43.004;-0.066;2022-08-25T00:18:37;3.40;;;3.10;;
55833;SDS011;41761;43.004;-0.066;2022-08-25T00:21:04;6.90;;;2.30;;
55833;SDS011;41761;43.004;-0.066;2022-08-25T00:23:30;4.63;;;3.83;;
55833;SDS011;41761;43.004;-0.066;2022-08-25T00:25:56;2.92;;;2.67;;
55833;SDS011;41761;43.004;-0.066;2022-08-25T00:28:22;5.45;;;2.80;;
55833;SDS011;41761;43.004;-0.066;2022-08-25T00:30:49;4.10;;;2.97;;
55833;SDS011;41761;43.004;-0.066;2022-08-25T00:33:16;3.33;;;3.03;;
55833;SDS011;41761;43.004;-0.066;2022-08-25T00:35:42;3.88;;;3.58;;
55833;SDS011;41761;43.004;-0.066;2022-08-25T00:38:09;2.97;;;2.78;;
55833;SDS011;41761;43.004;-0.066;2022-08-25T00:40:36;3.78;;;3.47;;
55833;SDS011;41761;43.004;-0.066;2022-08-25T00:43:04;6.15;;;3.95;;
55833;SDS011;41761;43.004;-0.066;2022-08-25T00:45:30;3.90;;;3.17;;
55833;SDS011;41761;43.004;-0.066;2022-08-25T00:47:57;4.70;;;3.50;;
55833;SDS011;41761;43.004;-0.066;2022-08-25T00:50:23;3.60;;;3.10;;
55833;SDS011;41761;43.004;-0.066;2022-08-25T00:52:51;3.63;;;3.33;;
55833;SDS011;41761;43.004;-0.066;2022-08-25T00:55:35;3.95;;;3.65;;
55833;SDS011;41761;43.004;-0.066;2022-08-25T01:00:34;4.32;;;3.92;;
55833;SDS011;41761;43.004;-0.066;2022-08-25T01:03:01;5.50;;;3.22;;
55833;SDS011;41761;43.004;-0.066;2022-08-25T01:05:28;4.18;;;3.78;;
55833;SDS011;41761;43.004;-0.066;2022-08-25T01:07:55;4.45;;;3.80;;
55833;SDS011;41761;43.004;-0.066;2022-08-25T01:10:22;4.15;;;3.72;;
55833;SDS011;41761;43.004;-0.066;2022-08-25T01:12:50;5.22;;;4.20;;
55833;SDS011;41761;43.004;-0.066;2022-08-25T01:15:18;4.00;;;3.58;;
55833;SDS011;41761;43.004;-0.066;2022-08-25T01:17:51;3.85;;;3.53;;
55833;SDS011;41761;43.004;-0.066;2022-08-25T01:20:19;5.25;;;4.60;;
55833;SDS011;41761;43.004;-0.066;2022-08-25T01:22:45;11.68;;;3.88;;
55833;SDS011;41761;43.004;-0.066;2022-08-25T01:27:50;4.40;;;3.58;;
55833;SDS011;41761;43.004;-0.066;2022-08-25T01:30:16;8.70;;;3.92;;
55833;SDS011;41761;43.004;-0.066;2022-08-25T01:32:43;6.50;;;3.88;;
55833;SDS011;41761;43.004;-0.066;2022-08-25T01:35:09;4.70;;;3.45;;
55833;SDS011;41761;43.004;-0.066;2022-08-25T01:37:35;4.38;;;3.97;;
55833;SDS011;41761;43.004;-0.066;2022-08-25T01:40:02;4.70;;;3.95;;
55833;SDS011;41761;43.004;-0.066;2022-08-25T01:45:14;3.53;;;3.22;;
55833;SDS011;41761;43.004;-0.066;2022-08-25T01:47:40;5.45;;;3.63;;
55833;SDS011;41761;43.004;-0.066;2022-08-25T01:50:06;8.05;;;3.75;;
55833;SDS011;41761;43.004;-0.066;2022-08-25T01:55:31;11.43;;;3.90;;
55833;SDS011;41761;43.004;-0.066;2022-08-25T01:58:17;4.88;;;3.45;;
55833;SDS011;41761;43.004;-0.066;2022-08-25T02:00:45;4.40;;;3.70;;
55833;SDS011;41761;43.004;-0.066;2022-08-25T02:03:11;4.20;;;3.53;;
55833;SDS011;41761;43.004;-0.066;2022-08-25T02:05:37;3.47;;;3.17;;
55833;SDS011;41761;43.004;-0.066;2022-08-25T02:08:03;4.28;;;3.70;;
55833;SDS011;41761;43.004;-0.066;2022-08-25T02:10:29;3.80;;;3.20;;
55833;SDS011;41761;43.004;-0.066;2022-08-25T02:12:56;5.95;;;3.88;;
55833;SDS011;41761;43.004;-0.066;2022-08-25T02:15:23;6.47;;;3.70;;
55833;SDS011;41761;43.004;-0.066;2022-08-25T02:17:49;6.20;;;3.63;;
55833;SDS011;41761;43.004;-0.066;2022-08-25T02:20:15;6.68;;;3.60;;
55833;SDS011;41761;43.004;-0.066;2022-08-25T02:22:42;5.70;;;3.88;;
55833;SDS011;41761;43.004;-0.066;2022-08-25T02:25:08;5.28;;;3.28;;
55833;SDS011;41761;43.004;-0.066;2022-08-25T02:27:34;3.67;;;3.30;;
55833;SDS011;41761;43.004;-0.066;2022-08-25T02:30:01;4.10;;;3.70;;
55833;SDS011;41761;43.004;-0.066;2022-08-25T02:32:27;4.68;;;3.33;;
55833;SDS011;41761;43.004;-0.066;2022-08-25T02:34:53;4.80;;;3.53;;
55833;SDS011;41761;43.004;-0.066;2022-08-25T02:37:19;4.18;;;3.75;;
55833;SDS011;41761;43.004;-0.066;2022-08-25T02:39:45;4.65;;;3.88;;
55833;SDS011;41761;43.004;-0.066;2022-08-25T02:42:11;8.40;;;3.67;;
55833;SDS011;41761;43.004;-0.066;2022-08-25T02:44:38;4.43;;;3.78;;
55833;SDS011;41761;43.004;-0.066;2022-08-25T02:47:05;6.25;;;3.28;;
55833;SDS011;41761;43.004;-0.066;2022-08-25T02:49:31;3.67;;;3.38;;
55833;SDS011;41761;43.004;-0.066;2022-08-25T02:51:57;4.43;;;3.38;;
55833;SDS011;41761;43.004;-0.066;2022-08-25T02:54:24;4.20;;;3.63;;
55833;SDS011;41761;43.004;-0.066;2022-08-25T02:56:51;3.90;;;3.40;;
55833;SDS011;41761;43.004;-0.066;2022-08-25T02:59:17;5.07;;;3.33;;
55833;SDS011;41761;43.004;-0.066;2022-08-25T03:01:43;3.97;;;3.25;;
55833;SDS011;41761;43.004;-0.066;2022-08-25T03:04:09;5.72;;;3.78;;
55833;SDS011;41761;43.004;-0.066;2022-08-25T03:06:35;3.35;;;2.95;;
55833;SDS011;41761;43.004;-0.066;2022-08-25T03:09:02;3.53;;;3.22;;
55833;SDS011;41761;43.004;-0.066;2022-08-25T03:11:28;3.58;;;3.08;;
55833;SDS011;41761;43.004;-0.066;2022-08-25T03:13:55;3.97;;;3.13;;
55833;SDS011;41761;43.004;-0.066;2022-08-25T03:16:22;3.80;;;3.05;;
55833;SDS011;41761;43.004;-0.066;2022-08-25T03:18:49;3.70;;;3.25;;
55833;SDS011;41761;43.004;-0.066;2022-08-25T03:21:15;3.97;;;3.58;;
55833;SDS011;41761;43.004;-0.066;2022-08-25T03:23:41;4.85;;;3.85;;
55833;SDS011;41761;43.004;-0.066;2022-08-25T03:26:08;4.32;;;3.60;;
55833;SDS011;41761;43.004;-0.066;2022-08-25T03:28:52;4.00;;;3.58;;
55833;SDS011;41761;43.004;-0.066;2022-08-25T03:31:20;4.05;;;3.55;;
55833;SDS011;41761;43.004;-0.066;2022-08-25T03:33:46;4.53;;;3.17;;
55833;SDS011;41761;43.004;-0.066;2022-08-25T03:36:13;4.00;;;3.60;;
55833;SDS011;41761;43.004;-0.066;2022-08-25T03:38:39;4.10;;;3.40;;
55833;SDS011;41761;43.004;-0.066;2022-08-25T03:41:12;5.40;;;3.72;;
55833;SDS011;41761;43.004;-0.066;2022-08-25T03:43:39;3.90;;;3.40;;
55833;SDS011;41761;43.004;-0.066;2022-08-25T03:46:05;3.50;;;3.20;;
55833;SDS011;41761;43.004;-0.066;2022-08-25T03:48:31;4.63;;;3.42;;
55833;SDS011;41761;43.004;-0.066;2022-08-25T03:50:57;4.15;;;3.25;;
55833;SDS011;41761;43.004;-0.066;2022-08-25T03:53:23;3.33;;;2.97;;
55833;SDS011;41761;43.004;-0.066;2022-08-25T03:55:49;3.58;;;3.28;;
55833;SDS011;41761;43.004;-0.066;2022-08-25T03:58:15;3.55;;;3.10;;
55833;SDS011;41761;43.004;-0.066;2022-08-25T04:00:42;3.75;;;3.40;;
55833;SDS011;41761;43.004;-0.066;2022-08-25T04:03:08;6.03;;;3.40;;
55833;SDS011;41761;43.004;-0.066;2022-08-25T04:05:35;4.05;;;3.10;;
55833;SDS011;41761;43.004;-0.066;2022-08-25T04:08:01;4.43;;;3.97;;
55833;SDS011;41761;43.004;-0.066;2022-08-25T04:10:27;3.45;;;3.15;;
55833;SDS011;41761;43.004;-0.066;2022-08-25T04:12:54;5.95;;;3.70;;
55833;SDS011;41761;43.004;-0.066;2022-08-25T04:15:20;3.25;;;3.05;;
55833;SDS011;41761;43.004;-0.066;2022-08-25T04:17:46;3.75;;;3.22;;
55833;SDS011;41761;43.004;-0.066;2022-08-25T04:20:12;4.88;;;3.45;;
55833;SDS011;41761;43.004;-0.066;2022-08-25T04:22:38;3.00;;;2.80;;
55833;SDS011;41761;43.004;-0.066;2022-08-25T04:25:05;4.45;;;3.50;;
55833;SDS011;41761;43.004;-0.066;2022-08-25T04:27:31;3.72;;;3.42;;
55833;SDS011;41761;43.004;-0.066;2022-08-25T04:29:57;3.53;;;3.28;;
55833;SDS011;41761;43.004;-0.066;2022-08-25T04:32:24;3.83;;;3.53;;
55833;SDS011;41761;43.004;-0.066;2022-08-25T04:34:50;3.53;;;3.22;;
55833;SDS011;41761;43.004;-0.066;2022-08-25T04:37:16;3.53;;;2.80;;
55833;SDS011;41761;43.004;-0.066;2022-08-25T04:39:42;3.47;;;3.17;;
55833;SDS011;41761;43.004;-0.066;2022-08-25T04:42:08;4.20;;;3.80;;
55833;SDS011;41761;43.004;-0.066;2022-08-25T04:44:35;7.72;;;3.30;;
55833;SDS011;41761;43.004;-0.066;2022-08-25T04:47:01;4.03;;;3.63;;
55833;SDS011;41761;43.004;-0.066;2022-08-25T04:49:28;3.95;;;3.47;;
55833;SDS011;41761;43.004;-0.066;2022-08-25T04:51:54;3.20;;;2.97;;
55833;SDS011;41761;43.004;-0.066;2022-08-25T04:54:21;3.90;;;3.42;;
55833;SDS011;41761;43.004;-0.066;2022-08-25T04:56:48;3.03;;;2.83;;
55833;SDS011;41761;43.004;-0.066;2022-08-25T04:59:15;3.67;;;3.22;;
55833;SDS011;41761;43.004;-0.066;2022-08-25T05:01:42;3.00;;;2.70;;
55833;SDS011;41761;43.004;-0.066;2022-08-25T05:04:10;3.97;;;3.58;;
55833;SDS011;41761;43.004;-0.066;2022-08-25T05:06:37;3.70;;;2.92;;
55833;SDS011;41761;43.004;-0.066;2022-08-25T05:09:03;3.55;;;3.25;;
55833;SDS011;41761;43.004;-0.066;2022-08-25T05:11:30;3.70;;;3.40;;
55833;SDS011;41761;43.004;-0.066;2022-08-25T05:13:56;4.10;;;3.63;;
55833;SDS011;41761;43.004;-0.066;2022-08-25T05:16:23;3.47;;;3.17;;
55833;SDS011;41761;43.004;-0.066;2022-08-25T05:18:50;3.63;;;3.30;;
55833;SDS011;41761;43.004;-0.066;2022-08-25T05:21:17;3.45;;;3.15;;
55833;SDS011;41761;43.004;-0.066;2022-08-25T05:23:44;5.28;;;3.38;;
55833;SDS011;41761;43.004;-0.066;2022-08-25T05:26:15;3.78;;;3.40;;
55833;SDS011;41761;43.004;-0.066;2022-08-25T05:28:41;3.10;;;2.90;;
55833;SDS011;41761;43.004;-0.066;2022-08-25T05:31:08;3.08;;;2.78;;
55833;SDS011;41761;43.004;-0.066;2022-08-25T05:33:34;3.28;;;3.00;;
55833;SDS011;41761;43.004;-0.066;2022-08-25T05:36:00;3.40;;;3.10;;
55833;SDS011;41761;43.004;-0.066;2022-08-25T05:38:26;3.15;;;2.85;;
55833;SDS011;41761;43.004;-0.066;2022-08-25T05:40:56;3.60;;;3.30;;
55833;SDS011;41761;43.004;-0.066;2022-08-25T05:43:23;3.85;;;2.90;;
55833;SDS011;41761;43.004;-0.066;2022-08-25T05:45:49;3.17;;;2.97;;
55833;SDS011;41761;43.004;-0.066;2022-08-25T05:48:15;3.15;;;2.88;;
55833;SDS011;41761;43.004;-0.066;2022-08-25T05:50:41;3.72;;;3.25;;
55833;SDS011;41761;43.004;-0.066;2022-08-25T05:53:07;2.97;;;2.75;;
55833;SDS011;41761;43.004;-0.066;2022-08-25T05:55:33;2.90;;;2.70;;
55833;SDS011;41761;43.004;-0.066;2022-08-25T05:57:59;3.45;;;3.15;;
55833;SDS011;41761;43.004;-0.066;2022-08-25T06:00:26;3.08;;;2.88;;
55833;SDS011;41761;43.004;-0.066;2022-08-25T06:02:52;3.70;;;3.40;;
55833;SDS011;41761;43.004;-0.066;2022-08-25T06:05:19;3.33;;;3.05;;
55833;SDS011;41761;43.004;-0.066;2022-08-25T06:07:46;3.20;;;3.00;;
55833;SDS011;41761;43.004;-0.066;2022-08-25T06:10:14;2.85;;;2.65;;
55833;SDS011;41761;43.004;-0.066;2022-08-25T06:12:41;3.10;;;2.80;;
55833;SDS011;41761;43.004;-0.066;2022-08-25T06:15:13;3.30;;;3.00;;
55833;SDS011;41761;43.004;-0.066;2022-08-25T06:17:40;3.17;;;2.97;;
55833;SDS011;41761;43.004;-0.066;2022-08-25T06:20:07;3.28;;;3.08;;
55833;SDS011;41761;43.004;-0.066;2022-08-25T06:22:34;5.47;;;2.83;;
55833;SDS011;41761;43.004;-0.066;2022-08-25T06:25:01;3.42;;;3.13;;
55833;SDS011;41761;43.004;-0.066;2022-08-25T06:27:27;3.10;;;2.90;;
55833;SDS011;41761;43.004;-0.066;2022-08-25T06:29:54;3.38;;;3.08;;
55833;SDS011;41761;43.004;-0.066;2022-08-25T06:32:20;3.25;;;3.00;;
55833;SDS011;41761;43.004;-0.066;2022-08-25T06:34:46;3.13;;;2.92;;
55833;SDS011;41761;43.004;-0.066;2022-08-25T06:37:12;3.45;;;3.15;;
55833;SDS011;41761;43.004;-0.066;2022-08-25T06:39:38;3.25;;;3.03;;
55833;SDS011;41761;43.004;-0.066;2022-08-25T06:42:04;2.90;;;2.70;;
55833;SDS011;41761;43.004;-0.066;2022-08-25T06:44:30;3.03;;;2.75;;
55833;SDS011;41761;43.004;-0.066;2022-08-25T06:46:56;4.43;;;3.10;;
55833;SDS011;41761;43.004;-0.066;2022-08-25T06:49:22;2.65;;;2.45;;
55833;SDS011;41761;43.004;-0.066;2022-08-25T06:51:51;3.95;;;3.38;;
55833;SDS011;41761;43.004;-0.066;2022-08-25T06:54:17;3.13;;;2.92;;
55833;SDS011;41761;43.004;-0.066;2022-08-25T06:56:44;3.42;;;3.10;;
55833;SDS011;41761;43.004;-0.066;2022-08-25T06:59:10;2.83;;;2.63;;
55833;SDS011;41761;43.004;-0.066;2022-08-25T07:01:36;3.08;;;2.88;;
55833;SDS011;41761;43.004;-0.066;2022-08-25T07:04:04;3.30;;;3.08;;
55833;SDS011;41761;43.004;-0.066;2022-08-25T07:06:31;2.55;;;2.45;;
55833;SDS011;41761;43.004;-0.066;2022-08-25T07:08:59;2.70;;;2.50;;
55833;SDS011;41761;43.004;-0.066;2022-08-25T07:11:25;2.83;;;2.63;;
55833;SDS011;41761;43.004;-0.066;2022-08-25T07:13:51;3.60;;;3.30;;
55833;SDS011;41761;43.004;-0.066;2022-08-25T07:16:18;3.53;;;3.10;;
55833;SDS011;41761;43.004;-0.066;2022-08-25T07:18:45;2.75;;;2.55;;
55833;SDS011;41761;43.004;-0.066;2022-08-25T07:21:11;2.97;;;2.78;;
55833;SDS011;41761;43.004;-0.066;2022-08-25T07:23:38;2.60;;;2.40;;
55833;SDS011;41761;43.004;-0.066;2022-08-25T07:28:34;3.05;;;2.75;;
55833;SDS011;41761;43.004;-0.066;2022-08-25T07:31:00;3.30;;;2.97;;
55833;SDS011;41761;43.004;-0.066;2022-08-25T07:33:26;3.00;;;2.80;;
55833;SDS011;41761;43.004;-0.066;2022-08-25T07:35:53;3.15;;;2.85;;
55833;SDS011;41761;43.004;-0.066;2022-08-25T07:38:19;3.65;;;3.35;;
55833;SDS011;41761;43.004;-0.066;2022-08-25T07:40:45;2.80;;;2.60;;
55833;SDS011;41761;43.004;-0.066;2022-08-25T07:43:18;2.55;;;2.40;;
55833;SDS011;41761;43.004;-0.066;2022-08-25T07:45:45;2.95;;;2.75;;
55833;SDS011;41761;43.004;-0.066;2022-08-25T07:48:11;2.90;;;2.70;;
55833;SDS011;41761;43.004;-0.066;2022-08-25T07:50:39;3.65;;;3.30;;
55833;SDS011;41761;43.004;-0.066;2022-08-25T07:53:06;3.03;;;2.75;;
55833;SDS011;41761;43.004;-0.066;2022-08-25T07:55:33;3.15;;;2.55;;
55833;SDS011;41761;43.004;-0.066;2022-08-25T07:58:03;2.90;;;2.70;;
55833;SDS011;41761;43.004;-0.066;2022-08-25T08:00:30;4.90;;;2.75;;
55833;SDS011;41761;43.004;-0.066;2022-08-25T08:02:58;3.47;;;3.15;;
55833;SDS011;41761;43.004;-0.066;2022-08-25T08:05:24;3.17;;;2.83;;
55833;SDS011;41761;43.004;-0.066;2022-08-25T08:07:52;2.80;;;2.60;;
55833;SDS011;41761;43.004;-0.066;2022-08-25T08:10:18;4.68;;;2.97;;
55833;SDS011;41761;43.004;-0.066;2022-08-25T08:12:44;3.40;;;3.10;;
55833;SDS011;41761;43.004;-0.066;2022-08-25T08:15:10;3.55;;;3.10;;
55833;SDS011;41761;43.004;-0.066;2022-08-25T08:17:37;2.90;;;2.60;;
55833;SDS011;41761;43.004;-0.066;2022-08-25T08:20:04;2.67;;;2.47;;
55833;SDS011;41761;43.004;-0.066;2022-08-25T08:22:33;3.92;;;2.75;;
55833;SDS011;41761;43.004;-0.066;2022-08-25T08:24:59;3.28;;;2.92;;
55833;SDS011;41761;43.004;-0.066;2022-08-25T08:27:25;3.63;;;3.13;;
55833;SDS011;41761;43.004;-0.066;2022-08-25T08:29:52;3.08;;;2.85;;
55833;SDS011;41761;43.004;-0.066;2022-08-25T08:32:18;4.05;;;2.88;;
55833;SDS011;41761;43.004;-0.066;2022-08-25T08:34:45;5.25;;;3.15;;
55833;SDS011;41761;43.004;-0.066;2022-08-25T08:37:11;4.38;;;3.33;;
55833;SDS011;41761;43.004;-0.066;2022-08-25T08:39:38;3.50;;;3.05;;
55833;SDS011;41761;43.004;-0.066;2022-08-25T08:42:20;2.80;;;2.60;;
55833;SDS011;41761;43.004;-0.066;2022-08-25T08:55:08;2.97;;;2.60;;
55833;SDS011;41761;43.004;-0.066;2022-08-25T08:57:38;2.90;;;2.70;;
55833;SDS011;41761;43.004;-0.066;2022-08-25T09:00:07;4.32;;;3.20;;
55833;SDS011;41761;43.004;-0.066;2022-08-25T09:02:41;3.00;;;2.80;;
55833;SDS011;41761;43.004;-0.066;2022-08-25T09:05:10;4.57;;;3.20;;
55833;SDS011;41761;43.004;-0.066;2022-08-25T09:07:40;3.28;;;2.90;;
55833;SDS011;41761;43.004;-0.066;2022-08-25T09:10:11;4.45;;;2.58;;
55833;SDS011;41761;43.004;-0.066;2022-08-25T09:15:18;2.85;;;2.65;;
55833;SDS011;41761;43.004;-0.066;2022-08-25T09:23:30;3.53;;;2.97;;
55833;SDS011;41761;43.004;-0.066;2022-08-25T09:31:18;5.50;;;2.85;;
55833;SDS011;41761;43.004;-0.066;2022-08-25T09:33:45;3.28;;;2.90;;
55833;SDS011;41761;43.004;-0.066;2022-08-25T09:36:12;3.72;;;3.05;;
55833;SDS011;41761;43.004;-0.066;2022-08-25T09:38:38;3.40;;;3.10;;
55833;SDS011;41761;43.004;-0.066;2022-08-25T09:41:06;3.05;;;2.78;;
55833;SDS011;41761;43.004;-0.066;2022-08-25T09:43:38;3.53;;;2.97;;
55833;SDS011;41761;43.004;-0.066;2022-08-25T09:46:25;3.55;;;3.15;;
55833;SDS011;41761;43.004;-0.066;2022-08-25T09:48:55;4.78;;;2.85;;
55833;SDS011;41761;43.004;-0.066;2022-08-25T09:53:53;7.95;;;3.25;;
55833;SDS011;41761;43.004;-0.066;2022-08-25T09:56:20;4.03;;;2.95;;
55833;SDS011;41761;43.004;-0.066;2022-08-25T09:58:47;4.40;;;3.05;;
55833;SDS011;41761;43.004;-0.066;2022-08-25T10:01:18;5.30;;;3.03;;
55833;SDS011;41761;43.004;-0.066;2022-08-25T10:03:58;3.35;;;3.05;;
55833;SDS011;41761;43.004;-0.066;2022-08-25T10:06:25;4.57;;;2.85;;
55833;SDS011;41761;43.004;-0.066;2022-08-25T10:08:54;3.80;;;3.08;;
55833;SDS011;41761;43.004;-0.066;2022-08-25T10:11:29;4.90;;;3.00;;
55833;SDS011;41761;43.004;-0.066;2022-08-25T10:14:01;3.90;;;2.95;;
55833;SDS011;41761;43.004;-0.066;2022-08-25T10:16:28;4.88;;;3.10;;
55833;SDS011;41761;43.004;-0.066;2022-08-25T10:19:03;3.40;;;2.75;;
55833;SDS011;41761;43.004;-0.066;2022-08-25T10:21:30;3.72;;;2.42;;
55833;SDS011;41761;43.004;-0.066;2022-08-25T10:23:57;4.55;;;3.40;;
55833;SDS011;41761;43.004;-0.066;2022-08-25T10:29:21;3.53;;;3.15;;
55833;SDS011;41761;43.004;-0.066;2022-08-25T10:34:33;2.78;;;2.55;;
55833;SDS011;41761;43.004;-0.066;2022-08-25T10:39:38;3.35;;;3.05;;
55833;SDS011;41761;43.004;-0.066;2022-08-25T10:44:50;3.45;;;2.85;;
55833;SDS011;41761;43.004;-0.066;2022-08-25T10:56:09;4.63;;;3.05;;
55833;SDS011;41761;43.004;-0.066;2022-08-25T11:01:24;2.55;;;2.30;;
55833;SDS011;41761;43.004;-0.066;2022-08-25T11:03:40;10.20;;;2.90;;
55833;SDS011;41761;43.004;-0.066;2022-08-25T11:06:12;4.78;;;2.55;;
55833;SDS011;41761;43.004;-0.066;2022-08-25T11:08:40;2.70;;;2.50;;
55833;SDS011;41761;43.004;-0.066;2022-08-25T11:11:20;3.72;;;3.10;;
55833;SDS011;41761;43.004;-0.066;2022-08-25T11:13:53;3.20;;;2.53;;
55833;SDS011;41761;43.004;-0.066;2022-08-25T11:16:21;3.80;;;2.83;;
55833;SDS011;41761;43.004;-0.066;2022-08-25T11:18:58;2.95;;;2.58;;
55833;SDS011;41761;43.004;-0.066;2022-08-25T11:21:30;2.60;;;2.40;;
55833;SDS011;41761;43.004;-0.066;2022-08-25T11:24:00;3.78;;;2.60;;
55833;SDS011;41761;43.004;-0.066;2022-08-25T11:26:31;5.97;;;2.78;;
55833;SDS011;41761;43.004;-0.066;2022-08-25T11:29:08;6.03;;;3.00;;
55833;SDS011;41761;43.004;-0.066;2022-08-25T11:31:37;4.13;;;2.80;;
55833;SDS011;41761;43.004;-0.066;2022-08-25T11:34:03;3.95;;;2.63;;
55833;SDS011;41761;43.004;-0.066;2022-08-25T11:36:34;2.67;;;2.47;;
55833;SDS011;41761;43.004;-0.066;2022-08-25T11:42:02;3.70;;;2.58;;
55833;SDS011;41761;43.004;-0.066;2022-08-25T11:44:43;4.65;;;2.97;;
55833;SDS011;41761;43.004;-0.066;2022-08-25T11:47:21;4.88;;;2.80;;
55833;SDS011;41761;43.004;-0.066;2022-08-25T11:55:05;3.75;;;2.35;;
55833;SDS011;41761;43.004;-0.066;2022-08-25T11:57:35;2.70;;;2.50;;
55833;SDS011;41761;43.004;-0.066;2022-08-25T12:02:35;3.10;;;2.75;;
55833;SDS011;41761;43.004;-0.066;2022-08-25T12:10:25;3.05;;;2.33;;
55833;SDS011;41761;43.004;-0.066;2022-08-25T12:12:55;3.00;;;2.25;;
55833;SDS011;41761;43.004;-0.066;2022-08-25T12:15:23;2.97;;;2.67;;
55833;SDS011;41761;43.004;-0.066;2022-08-25T12:23:28;4.10;;;2.13;;
55833;SDS011;41761;43.004;-0.066;2022-08-25T12:25:57;4.15;;;2.90;;
55833;SDS011;41761;43.004;-0.066;2022-08-25T12:33:59;4.80;;;2.78;;
55833;SDS011;41761;43.004;-0.066;2022-08-25T12:36:30;2.45;;;1.90;;
55833;SDS011;41761;43.004;-0.066;2022-08-25T12:39:58;3.63;;;2.75;;
55833;SDS011;41761;43.004;-0.066;2022-08-25T12:41:54;4.65;;;2.58;;
55833;SDS011;41761;43.004;-0.066;2022-08-25T12:44:42;2.80;;;2.60;;
55833;SDS011;41761;43.004;-0.066;2022-08-25T12:49:45;2.30;;;2.10;;
55833;SDS011;41761;43.004;-0.066;2022-08-25T12:52:16;4.75;;;2.30;;
55833;SDS011;41761;43.004;-0.066;2022-08-25T13:00:02;4.57;;;2.85;;
55833;SDS011;41761;43.004;-0.066;2022-08-25T13:10:15;3.15;;;2.13;;
55833;SDS011;41761;43.004;-0.066;2022-08-25T13:15:32;6.50;;;2.53;;
55833;SDS011;41761;43.004;-0.066;2022-08-25T13:23:27;3.80;;;3.00;;
55833;SDS011;41761;43.004;-0.066;2022-08-25T13:25:54;6.47;;;2.88;;
55833;SDS011;41761;43.004;-0.066;2022-08-25T13:28:38;3.20;;;2.13;;
55833;SDS011;41761;43.004;-0.066;2022-08-25T13:33:31;3.50;;;2.65;;
55833;SDS011;41761;43.004;-0.066;2022-08-25T13:35:57;3.33;;;2.42;;
55833;SDS011;41761;43.004;-0.066;2022-08-25T13:38:43;4.35;;;2.30;;
55833;SDS011;41761;43.004;-0.066;2022-08-25T13:41:10;5.20;;;2.55;;
55833;SDS011;41761;43.004;-0.066;2022-08-25T13:43:36;2.30;;;2.10;;
55833;SDS011;41761;43.004;-0.066;2022-08-25T13:46:03;3.58;;;2.28;;
55833;SDS011;41761;43.004;-0.066;2022-08-25T13:51:18;3.85;;;2.45;;
55833;SDS011;41761;43.004;-0.066;2022-08-25T13:53:58;2.13;;;1.92;;
55833;SDS011;41761;43.004;-0.066;2022-08-25T13:58:57;4.43;;;2.45;;
55833;SDS011;41761;43.004;-0.066;2022-08-25T14:01:25;3.60;;;2.17;;
55833;SDS011;41761;43.004;-0.066;2022-08-25T14:03:52;3.40;;;2.55;;
55833;SDS011;41761;43.004;-0.066;2022-08-25T14:06:23;6.78;;;2.08;;
55833;SDS011;41761;43.004;-0.066;2022-08-25T14:11:58;2.45;;;2.00;;
55833;SDS011;41761;43.004;-0.066;2022-08-25T14:19:16;2.50;;;2.30;;
55833;SDS011;41761;43.004;-0.066;2022-08-25T14:21:43;3.47;;;2.33;;
55833;SDS011;41761;43.004;-0.066;2022-08-25T14:24:09;3.88;;;2.28;;
55833;SDS011;41761;43.004;-0.066;2022-08-25T14:26:39;2.95;;;2.13;;
55833;SDS011;41761;43.004;-0.066;2022-08-25T14:29:05;3.47;;;2.60;;
55833;SDS011;41761;43.004;-0.066;2022-08-25T14:31:35;3.58;;;2.10;;
55833;SDS011;41761;43.004;-0.066;2022-08-25T14:34:04;2.95;;;2.33;;
55833;SDS011;41761;43.004;-0.066;2022-08-25T14:36:32;2.60;;;2.40;;
55833;SDS011;41761;43.004;-0.066;2022-08-25T14:38:59;5.95;;;2.40;;
55833;SDS011;41761;43.004;-0.066;2022-08-25T14:41:31;6.75;;;2.30;;
55833;SDS011;41761;43.004;-0.066;2022-08-25T14:43:58;2.38;;;2.17;;
55833;SDS011;41761;43.004;-0.066;2022-08-25T14:46:25;5.47;;;1.90;;
55833;SDS011;41761;43.004;-0.066;2022-08-25T14:48:53;5.50;;;2.20;;
55833;SDS011;41761;43.004;-0.066;2022-08-25T14:51:21;5.95;;;2.33;;
55833;SDS011;41761;43.004;-0.066;2022-08-25T14:53:48;2.40;;;2.20;;
55833;SDS011;41761;43.004;-0.066;2022-08-25T14:56:14;3.13;;;2.17;;
55833;SDS011;41761;43.004;-0.066;2022-08-25T14:58:40;3.20;;;2.08;;
55833;SDS011;41761;43.004;-0.066;2022-08-25T15:01:09;4.03;;;2.38;;
55833;SDS011;41761;43.004;-0.066;2022-08-25T15:03:37;3.53;;;2.60;;
55833;SDS011;41761;43.004;-0.066;2022-08-25T15:06:05;4.72;;;2.17;;
55833;SDS011;41761;43.004;-0.066;2022-08-25T15:08:31;3.97;;;2.13;;
55833;SDS011;41761;43.004;-0.066;2022-08-25T15:11:16;3.22;;;2.20;;
55833;SDS011;41761;43.004;-0.066;2022-08-25T15:13:45;2.17;;;1.75;;
55833;SDS011;41761;43.004;-0.066;2022-08-25T15:16:14;4.60;;;2.35;;
55833;SDS011;41761;43.004;-0.066;2022-08-25T15:18:42;2.40;;;2.20;;
55833;SDS011;41761;43.004;-0.066;2022-08-25T15:21:08;2.72;;;2.22;;
55833;SDS011;41761;43.004;-0.066;2022-08-25T15:23:35;3.50;;;2.10;;
55833;SDS011;41761;43.004;-0.066;2022-08-25T15:26:01;2.03;;;1.77;;
55833;SDS011;41761;43.004;-0.066;2022-08-25T15:28:27;2.35;;;1.80;;
55833;SDS011;41761;43.004;-0.066;2022-08-25T15:30:54;2.33;;;1.90;;
55833;SDS011;41761;43.004;-0.066;2022-08-25T15:33:20;2.40;;;1.65;;
55833;SDS011;41761;43.004;-0.066;2022-08-25T15:35:46;2.03;;;1.83;;
55833;SDS011;41761;43.004;-0.066;2022-08-25T15:38:16;4.28;;;2.42;;
55833;SDS011;41761;43.004;-0.066;2022-08-25T15:40:48;3.03;;;1.92;;
55833;SDS011;41761;43.004;-0.066;2022-08-25T15:43:14;4.33;;;2.03;;
55833;SDS011;41761;43.004;-0.066;2022-08-25T15:45:40;4.53;;;2.25;;
55833;SDS011;41761;43.004;-0.066;2022-08-25T15:48:07;3.25;;;2.53;;
55833;SDS011;41761;43.004;-0.066;2022-08-25T15:50:33;2.17;;;1.83;;
55833;SDS011;41761;43.004;-0.066;2022-08-25T15:52:59;4.22;;;2.50;;
55833;SDS011;41761;43.004;-0.066;2022-08-25T15:55:25;3.13;;;2.22;;
55833;SDS011;41761;43.004;-0.066;2022-08-25T15:57:51;2.72;;;1.98;;
55833;SDS011;41761;43.004;-0.066;2022-08-25T16:00:18;4.70;;;2.15;;
55833;SDS011;41761;43.004;-0.066;2022-08-25T16:02:44;1.90;;;1.80;;
55833;SDS011;41761;43.004;-0.066;2022-08-25T16:05:10;5.93;;;1.83;;
55833;SDS011;41761;43.004;-0.066;2022-08-25T16:07:36;2.22;;;2.05;;
55833;SDS011;41761;43.004;-0.066;2022-08-25T16:10:03;3.08;;;2.47;;
55833;SDS011;41761;43.004;-0.066;2022-08-25T16:12:29;4.05;;;2.00;;
55833;SDS011;41761;43.004;-0.066;2022-08-25T16:14:55;2.20;;;2.00;;
55833;SDS011;41761;43.004;-0.066;2022-08-25T16:17:21;3.80;;;1.90;;
55833;SDS011;41761;43.004;-0.066;2022-08-25T16:19:48;3.35;;;1.92;;
55833;SDS011;41761;43.004;-0.066;2022-08-25T16:22:14;3.22;;;1.73;;
55833;SDS011;41761;43.004;-0.066;2022-08-25T16:24:41;4.60;;;2.13;;
55833;SDS011;41761;43.004;-0.066;2022-08-25T16:27:09;2.78;;;2.33;;
55833;SDS011;41761;43.004;-0.066;2022-08-25T16:29:35;5.13;;;2.50;;
55833;SDS011;41761;43.004;-0.066;2022-08-25T16:32:05;2.17;;;1.92;;
55833;SDS011;41761;43.004;-0.066;2022-08-25T16:34:32;3.70;;;2.03;;
55833;SDS011;41761;43.004;-0.066;2022-08-25T16:36:58;8.07;;;2.10;;
55833;SDS011;41761;43.004;-0.066;2022-08-25T16:39:24;3.22;;;2.00;;
55833;SDS011;41761;43.004;-0.066;2022-08-25T16:41:51;3.35;;;1.67;;
55833;SDS011;41761;43.004;-0.066;2022-08-25T16:44:17;3.17;;;1.80;;
55833;SDS011;41761;43.004;-0.066;2022-08-25T16:46:44;2.88;;;1.83;;